Time;durP1;ratioP1;P1;durP2;ratioP2;P2;SDS_P1;SDS_P2;PMS_P1;PMS_P2;Temp;Humidity;BMP_temperature;BMP_pressure;BME280_temperature;BME280_humidity;BME280_pressure;Samples;Min_cycle;Max_cycle;Signal;HPM_P1;HPM_P2
2022/05/25 03:00:14;;;;;;;0.13;0.13;;;25.70;45.20;;;;;;6090654;23;45912;31
2022/05/25 03:02:40;;;;;;;0.22;0.22;;;25.70;45.20;;;;;;4955972;28;45881;-60
2022/05/25 03:05:06;;;;;;;0.43;0.40;;;25.70;45.20;;;;;;4958534;28;44745;-61
2022/05/25 03:07:32;;;;;;;0.30;0.30;;;25.70;45.30;;;;;;4979451;28;45605;-60
2022/05/25 03:09:57;;;;;;;0.95;0.40;;;25.70;45.20;;;;;;4970393;28;45569;-60
2022/05/25 03:12:23;;;;;;;0.40;0.28;;;25.70;45.20;;;;;;4971661;28;45489;-59
2022/05/25 03:14:48;;;;;;;0.35;0.30;;;25.70;45.20;;;;;;4973561;28;45475;-59
2022/05/25 03:17:14;;;;;;;0.30;0.30;;;25.70;45.20;;;;;;4971669;28;46188;-59
2022/05/25 03:19:51;;;;;;;0.30;0.30;;;25.70;45.20;;;;;;4970202;28;45245;-62
2022/05/25 03:22:16;;;;;;;0.30;0.22;;;25.60;45.10;;;;;;4970796;28;44931;-60
2022/05/25 03:24:42;;;;;;;0.38;0.30;;;25.70;45.20;;;;;;4971365;28;45476;-59
2022/05/25 03:27:08;;;;;;;0.20;0.20;;;25.60;45.10;;;;;;4969763;28;45975;-59
2022/05/25 03:29:33;;;;;;;0.30;0.28;;;25.70;45.20;;;;;;4973024;28;45214;-59
2022/05/25 03:31:59;;;;;;;0.30;0.20;;;25.60;45.20;;;;;;4972810;28;46085;-61
2022/05/25 03:34:24;;;;;;;0.50;0.30;;;25.60;45.10;;;;;;4978890;28;45050;-59
2022/05/25 03:36:54;;;;;;;0.20;0.20;;;25.60;45.10;;;;;;4941255;28;46166;-58
2022/05/25 03:39:24;;;;;;;0.55;0.30;;;25.70;45.30;;;;;;4969760;28;45364;-60
2022/05/25 03:41:53;;;;;;;0.80;0.40;;;25.60;45.10;;;;;;4964986;28;44963;-59
2022/05/25 03:44:19;;;;;;;0.35;0.30;;;25.60;45.10;;;;;;4967595;28;45610;-60
2022/05/25 03:46:45;;;;;;;0.20;0.10;;;25.70;45.20;;;;;;4948897;28;46050;-58
2022/05/25 03:49:10;;;;;;;0.30;0.30;;;25.60;45.10;;;;;;4970120;28;45155;-59
2022/05/25 03:51:36;;;;;;;0.30;0.30;;;25.60;45.10;;;;;;4967921;28;45346;-59
2022/05/25 03:54:01;;;;;;;0.50;0.30;;;25.60;45.10;;;;;;4970764;28;44644;-60
2022/05/25 03:56:27;;;;;;;0.20;0.20;;;25.60;45.10;;;;;;4974080;28;45947;-57
2022/05/25 03:58:53;;;;;;;0.35;0.20;;;25.60;45.10;;;;;;4973841;28;45250;-60
2022/05/25 04:01:18;;;;;;;0.35;0.35;;;25.60;45.10;;;;;;4963835;28;45329;-59
2022/05/25 04:03:44;;;;;;;1.05;0.20;;;25.60;45.20;;;;;;4967578;28;44993;-57
2022/05/25 04:06:09;;;;;;;0.68;0.38;;;25.60;45.10;;;;;;4975623;28;45974;-59
2022/05/25 04:08:35;;;;;;;0.30;0.30;;;25.60;45.20;;;;;;4965455;28;45453;-57
2022/05/25 04:11:00;;;;;;;0.22;0.20;;;25.60;45.10;;;;;;4975439;28;45507;-58
2022/05/25 04:13:27;;;;;;;0.70;0.40;;;25.60;45.10;;;;;;4974372;28;45661;-59
2022/05/25 04:15:52;;;;;;;0.43;0.30;;;25.60;45.10;;;;;;4973675;28;45627;-59
2022/05/25 04:18:18;;;;;;;1.05;0.52;;;25.60;45.10;;;;;;4955613;28;44837;-61
2022/05/25 04:20:43;;;;;;;0.22;0.22;;;25.60;45.10;;;;;;4972992;28;45326;-58
2022/05/25 04:23:10;;;;;;;0.85;0.40;;;25.60;45.10;;;;;;4973471;28;45315;-60
2022/05/25 04:25:36;;;;;;;0.70;0.30;;;25.60;45.10;;;;;;4949510;28;46356;-59
2022/05/25 04:28:02;;;;;;;0.73;0.40;;;25.50;45.10;;;;;;4973178;28;46034;-61
2022/05/25 04:30:29;;;;;;;0.77;0.40;;;25.50;45.10;;;;;;4968514;28;45436;-57
2022/05/25 04:32:55;;;;;;;0.60;0.40;;;25.50;45.10;;;;;;4976890;28;46219;-58
2022/05/25 04:35:21;;;;;;;0.10;0.10;;;25.50;45.10;;;;;;4972993;28;46024;-59
2022/05/25 04:37:49;;;;;;;0.20;0.20;;;25.50;45.10;;;;;;4956653;28;45179;-61
2022/05/25 04:40:16;;;;;;;1.52;0.55;;;25.60;45.10;;;;;;4971361;28;45226;-61
2022/05/25 04:42:43;;;;;;;0.50;0.30;;;25.60;45.10;;;;;;4972422;28;44797;-58
2022/05/25 04:45:09;;;;;;;0.47;0.32;;;25.50;45.20;;;;;;4979398;28;46339;-60
2022/05/25 04:47:37;;;;;;;0.30;0.30;;;25.50;45.20;;;;;;4973735;28;45128;-60
2022/05/25 04:50:05;;;;;;;0.65;0.30;;;25.50;45.10;;;;;;4971076;28;45070;-60
2022/05/25 04:52:31;;;;;;;0.57;0.43;;;25.50;45.10;;;;;;4973717;28;45499;-61
2022/05/25 04:54:56;;;;;;;0.30;0.30;;;25.50;45.20;;;;;;4969104;28;47160;-60
2022/05/25 04:57:27;;;;;;;0.50;0.30;;;25.50;45.10;;;;;;4962545;28;45143;-62
2022/05/25 04:59:59;;;;;;;0.88;0.40;;;25.50;45.10;;;;;;4968109;28;45586;-62
2022/05/25 05:02:29;;;;;;;0.43;0.22;;;25.50;45.10;;;;;;4966526;28;44964;-59
2022/05/25 05:04:56;;;;;;;1.27;0.30;;;25.50;45.20;;;;;;4957178;28;46373;-58
2022/05/25 05:07:31;;;;;;;0.73;0.20;;;25.50;45.20;;;;;;4969904;28;45196;-61
2022/05/25 05:09:57;;;;;;;0.63;0.20;;;25.50;45.20;;;;;;4973715;28;45094;-59
2022/05/25 05:12:23;;;;;;;0.25;0.22;;;25.50;45.30;;;;;;4953900;28;45750;-58
2022/05/25 05:14:48;;;;;;;0.30;0.20;;;25.50;45.30;;;;;;4975845;28;45903;-60
2022/05/25 05:17:14;;;;;;;0.85;0.30;;;25.40;45.20;;;;;;4974171;28;45387;-57
2022/05/25 05:19:39;;;;;;;0.50;0.35;;;25.50;45.30;;;;;;4974714;28;44745;-60
2022/05/25 05:22:05;;;;;;;0.40;0.40;;;25.40;45.20;;;;;;4964919;28;44817;-59
2022/05/25 05:24:32;;;;;;;0.28;0.28;;;25.50;45.30;;;;;;4976629;28;46309;-59
2022/05/25 05:26:57;;;;;;;0.50;0.30;;;25.40;45.20;;;;;;4979467;28;45320;-59
2022/05/25 05:29:24;;;;;;;0.68;0.38;;;25.50;45.20;;;;;;4963454;28;45252;-58
2022/05/25 05:31:50;;;;;;;0.30;0.22;;;25.50;45.20;;;;;;4992353;28;46106;-60
2022/05/25 05:34:15;;;;;;;0.30;0.30;;;25.40;45.30;;;;;;4978734;28;45880;-60
2022/05/25 05:37:08;;;;;;;0.20;0.20;;;25.40;45.20;;;;;;4957488;28;45469;-59
2022/05/25 05:39:36;;;;;;;0.35;0.30;;;25.50;45.30;;;;;;4974888;28;45102;-59
2022/05/25 05:42:07;;;;;;;0.38;0.38;;;25.40;45.30;;;;;;4956384;28;45442;-58
2022/05/25 05:44:41;;;;;;;0.32;0.20;;;25.40;45.30;;;;;;4954757;28;45970;-57
2022/05/25 05:47:09;;;;;;;0.30;0.30;;;25.50;45.50;;;;;;4969611;28;45476;-61
2022/05/25 05:49:36;;;;;;;0.40;0.40;;;25.40;45.30;;;;;;4942040;28;45485;-60
2022/05/25 05:52:01;;;;;;;0.50;0.30;;;25.40;45.30;;;;;;4957879;28;45435;-61
2022/05/25 05:54:27;;;;;;;0.30;0.30;;;25.40;45.20;;;;;;4972151;28;45384;-60
2022/05/25 05:56:53;;;;;;;0.43;0.30;;;25.40;45.20;;;;;;4976056;28;45226;-59
2022/05/25 05:59:18;;;;;;;0.35;0.22;;;25.40;45.20;;;;;;4957786;28;45604;-56
2022/05/25 06:01:45;;;;;;;0.47;0.30;;;25.40;45.20;;;;;;4949268;28;45435;-58
2022/05/25 06:04:11;;;;;;;0.35;0.20;;;25.40;45.20;;;;;;4975628;28;47026;-58
2022/05/25 06:06:37;;;;;;;0.50;0.28;;;25.40;45.20;;;;;;4974977;28;45089;-58
2022/05/25 06:09:02;;;;;;;;;;;25.40;45.20;;;;;;4981465;28;44971;-58
2022/05/25 06:11:28;;;;;;;1.23;0.35;;;25.40;45.30;;;;;;4972382;28;45294;-58
2022/05/25 06:13:53;;;;;;;0.80;0.40;;;25.40;45.20;;;;;;4968941;28;46098;-58
2022/05/25 06:21:47;;;;;;;0.75;0.38;;;25.50;44.60;;;;;;4972564;28;45391;-58
2022/05/25 06:24:13;;;;;;;1.00;0.60;;;25.50;44.50;;;;;;4973834;28;45508;-56
2022/05/25 06:26:39;;;;;;;0.43;0.43;;;25.50;44.40;;;;;;4972094;28;45594;-58
2022/05/25 06:29:04;;;;;;;0.60;0.40;;;25.50;44.30;;;;;;4968637;28;44683;-59
2022/05/25 06:31:30;;;;;;;1.13;0.30;;;25.40;44.10;;;;;;4975683;28;45130;-57
2022/05/25 06:33:56;;;;;;;0.35;0.35;;;25.40;44.10;;;;;;4976140;28;46970;-55
2022/05/25 06:36:26;;;;;;;0.47;0.43;;;25.40;44.00;;;;;;4975104;28;44621;-56
2022/05/25 06:38:52;;;;;;;0.90;0.38;;;25.40;44.00;;;;;;4972347;28;45474;-58
2022/05/25 06:41:18;;;;;;;0.38;0.30;;;25.30;44.20;;;;;;4975144;28;44986;-56
2022/05/25 06:43:43;;;;;;;0.95;0.30;;;25.40;44.30;;;;;;4975941;28;45647;-55
2022/05/25 06:46:10;;;;;;;0.88;0.50;;;25.30;44.30;;;;;;4970925;28;46169;-59
2022/05/25 06:48:35;;;;;;;1.52;0.40;;;25.40;44.50;;;;;;4978418;28;45861;-56
2022/05/25 06:51:10;;;;;;;1.13;0.50;;;25.30;44.50;;;;;;4968949;28;45296;-59
2022/05/25 06:53:36;;;;;;;0.68;0.30;;;25.40;44.50;;;;;;4970787;28;46781;-57
2022/05/25 06:56:01;;;;;;;0.50;0.30;;;25.40;44.50;;;;;;4975002;28;45152;-57
2022/05/25 06:58:27;;;;;;;0.70;0.35;;;25.40;44.60;;;;;;4976526;28;45095;-57
2022/05/25 07:00:52;;;;;;;0.30;0.30;;;25.40;44.50;;;;;;4971093;28;45430;-60
2022/05/25 07:03:18;;;;;;;0.43;0.20;;;25.50;44.60;;;;;;4975413;28;46014;-58
2022/05/25 07:05:43;;;;;;;0.25;0.22;;;25.40;44.50;;;;;;4983582;23;45209;-59
2022/05/25 07:08:09;;;;;;;0.40;0.30;;;25.40;44.50;;;;;;4945234;28;45606;-59
2022/05/25 07:10:34;;;;;;;1.08;0.28;;;25.50;44.50;;;;;;4970100;28;45217;-57
2022/05/25 07:13:00;;;;;;;;;;;25.50;44.50;;;;;;4974787;28;46444;-57
2022/05/25 07:15:25;;;;;;;;;;;25.50;44.50;;;;;;4976869;28;44681;-59
2022/05/25 07:17:51;;;;;;;;;;;25.50;44.60;;;;;;4977294;28;45113;-56
2022/05/25 07:20:16;;;;;;;;;;;25.50;44.60;;;;;;4978570;28;45394;-60
2022/05/25 07:22:42;;;;;;;;;;;25.50;44.60;;;;;;4972445;28;45656;-60
2022/05/25 07:25:08;;;;;;;0.10;0.10;;;25.50;44.60;;;;;;4970605;28;45153;-59
2022/05/25 07:27:33;;;;;;;0.30;0.20;;;25.50;44.50;;;;;;4974994;28;45251;-59
2022/05/25 07:30:01;;;;;;;0.20;0.20;;;25.60;44.60;;;;;;4973675;28;46545;-58
2022/05/25 07:32:27;;;;;;;0.50;0.38;;;25.60;44.60;;;;;;4976233;28;46977;-59
2022/05/25 07:34:55;;;;;;;0.55;0.30;;;25.60;45.20;;;;;;4957618;28;45065;-59
2022/05/25 07:37:22;;;;;;;1.60;0.40;;;25.60;44.60;;;;;;4971659;28;44776;-59
2022/05/25 07:39:57;;;;;;;0.95;0.30;;;25.60;44.70;;;;;;4971884;28;45112;-58
2022/05/25 07:42:23;;;;;;;0.80;0.30;;;25.70;44.70;;;;;;4937003;28;46017;-59
2022/05/25 07:44:56;;;;;;;0.47;0.30;;;25.70;44.70;;;;;;4951232;28;45593;-60
2022/05/25 07:47:21;;;;;;;;;;;25.70;44.70;;;;;;4976717;28;44801;-59
2022/05/25 07:49:47;;;;;;;0.73;0.40;;;25.70;44.80;;;;;;4972582;28;46294;-61
2022/05/25 07:52:13;;;;;;;2.50;0.30;;;25.70;44.70;;;;;;4972764;28;47204;-59
2022/05/25 07:54:42;;;;;;;;;;;25.70;44.70;;;;;;4958644;28;45638;-58
2022/05/25 07:57:08;;;;;;;0.60;0.30;;;25.80;44.80;;;;;;4960229;28;44634;-60
2022/05/25 07:59:34;;;;;;;1.48;0.32;;;25.80;44.60;;;;;;4974939;28;45555;-60
2022/05/25 08:07:33;;;;;;;0.70;0.50;;;25.90;44.60;;;;;;4973291;28;45249;-59
2022/05/25 08:10:07;;;;;;;0.30;0.30;;;25.90;44.50;;;;;;4936607;28;45265;-59
2022/05/25 08:12:34;;;;;;;0.50;0.30;;;26.00;44.50;;;;;;4947328;28;45921;-58
2022/05/25 08:15:00;;;;;;;1.73;0.32;;;26.00;44.50;;;;;;4973910;28;45187;-58
2022/05/25 08:17:26;;;;;;;1.05;0.45;;;26.00;44.50;;;;;;4972103;28;45122;-57
2022/05/25 08:19:52;;;;;;;;;;;26.10;44.40;;;;;;4973465;28;45491;-57
2022/05/25 08:22:17;;;;;;;;;;;26.00;44.40;;;;;;4977945;28;46032;-56
2022/05/25 08:24:43;;;;;;;;;;;26.10;44.40;;;;;;4970332;28;45252;-56
2022/05/25 08:27:08;;;;;;;;;;;26.10;44.40;;;;;;4972433;28;44693;-57
2022/05/25 08:29:34;;;;;;;;;;;26.10;44.30;;;;;;4971726;28;45477;-55
2022/05/25 08:31:59;;;;;;;;;;;26.20;44.30;;;;;;4974778;28;46154;-58
2022/05/25 08:34:28;;;;;;;;;;;26.20;44.30;;;;;;4972675;28;44993;-57
2022/05/25 08:36:53;;;;;;;;;;;26.20;44.20;;;;;;4975972;28;45259;-58
2022/05/25 08:39:19;;;;;;;;;;;26.20;44.20;;;;;;4975662;28;45514;-57
2022/05/25 08:41:45;;;;;;;;;;;26.30;44.20;;;;;;4971510;28;45987;-58
2022/05/25 08:44:11;;;;;;;;;;;26.30;44.10;;;;;;4983912;28;45168;-57
2022/05/25 08:46:36;;;;;;;;;;;26.30;44.10;;;;;;4993353;28;45656;-60
2022/05/25 08:49:02;;;;;;;;;;;26.30;44.00;;;;;;4991598;28;45188;-59
2022/05/25 08:51:28;;;;;;;;;;;26.30;44.00;;;;;;4972379;28;46767;-57
2022/05/25 08:53:55;;;;;;;;;;;26.30;43.90;;;;;;4977284;28;45025;-59
2022/05/25 08:56:21;;;;;;;;;;;26.30;44.00;;;;;;4991462;28;45600;-59
2022/05/25 08:58:46;;;;;;;;;;;26.30;44.00;;;;;;4995502;28;45370;-57
2022/05/25 09:01:13;;;;;;;;;;;26.40;43.90;;;;;;4993977;28;46036;-59
2022/05/25 09:03:43;;;;;;;;;;;26.30;44.00;;;;;;4978183;28;45375;-58
2022/05/25 09:06:14;;;;;;;;;;;26.40;44.10;;;;;;4973588;28;45477;-58
2022/05/25 09:08:49;;;;;;;;;;;26.40;44.00;;;;;;4978699;28;45185;-60
2022/05/25 09:11:23;;;;;;;;;;;26.40;44.00;;;;;;4989096;28;46020;-59
2022/05/25 09:14:07;;;;;;;;;;;26.40;44.00;;;;;;4990072;28;45057;-59
2022/05/25 09:16:34;;;;;;;0.55;0.30;;;26.40;43.80;;;;;;4986650;28;45269;-59
2022/05/25 09:19:14;;;;;;;0.38;0.28;;;26.40;43.90;;;;;;4971613;28;44785;-56
2022/05/25 09:21:50;;;;;;;0.70;0.30;;;26.40;43.80;;;;;;4945946;28;47067;-60
2022/05/25 09:24:18;;;;;;;0.35;0.20;;;26.50;44.00;;;;;;4975583;28;45374;-59
2022/05/25 09:26:44;;;;;;;0.75;0.30;;;26.40;43.90;;;;;;4975669;28;45221;-58
2022/05/25 09:29:10;;;;;;;0.40;0.40;;;26.50;44.00;;;;;;4975235;28;45203;-60
2022/05/25 09:31:47;;;;;;;0.60;0.38;;;26.50;44.00;;;;;;4994058;28;45227;-57
2022/05/25 09:34:34;;;;;;;0.60;0.45;;;26.50;44.00;;;;;;4961777;28;45192;-59
2022/05/25 09:37:13;;;;;;;0.28;0.28;;;26.50;44.00;;;;;;4978669;28;45128;-59
2022/05/25 09:39:41;;;;;;;1.10;0.43;;;26.50;44.00;;;;;;4976321;28;45448;-58
2022/05/25 09:42:10;;;;;;;0.30;0.30;;;26.60;44.00;;;;;;4993350;28;46084;-58
2022/05/25 09:44:36;;;;;;;0.45;0.30;;;26.50;44.00;;;;;;4957820;28;45277;-59
2022/05/25 09:47:04;;;;;;;0.32;0.30;;;26.50;43.90;;;;;;4989286;28;45121;-57
2022/05/25 09:49:31;;;;;;;1.40;0.20;;;26.60;44.10;;;;;;4974315;28;45254;-59
2022/05/25 09:51:58;;;;;;;0.50;0.30;;;26.60;43.90;;;;;;4970165;28;45820;-59
2022/05/25 09:54:31;;;;;;;0.40;0.40;;;26.60;43.90;;;;;;4957334;28;45441;-58
2022/05/25 09:57:05;;;;;;;0.65;0.38;;;26.60;44.00;;;;;;4990529;28;45758;-58
2022/05/25 09:59:42;;;;;;;0.57;0.35;;;26.60;43.90;;;;;;4993814;28;45578;-57
2022/05/25 10:02:29;;;;;;;0.30;0.30;;;26.60;43.90;;;;;;4970659;28;46177;-60
2022/05/25 10:04:57;;;;;;;0.40;0.30;;;26.60;43.80;;;;;;4971121;28;45411;-57
2022/05/25 10:07:31;;;;;;;0.45;0.30;;;26.60;43.90;;;;;;4975877;28;44712;-56
2022/05/25 10:10:01;;;;;;;2.13;0.30;;;26.60;43.80;;;;;;4989922;28;46931;-61
2022/05/25 10:12:45;;;;;;;1.25;0.43;;;26.60;43.80;;;;;;4972702;28;45591;-60
2022/05/25 10:15:13;;;;;;;0.68;0.30;;;26.70;43.70;;;;;;4987561;28;45426;-57
2022/05/25 10:17:40;;;;;;;0.30;0.30;;;26.70;43.80;;;;;;4980730;28;45276;-61
2022/05/25 10:20:28;;;;;;;0.25;0.25;;;26.70;43.60;;;;;;4984870;28;45415;-59
2022/05/25 10:23:18;;;;;;;0.80;0.40;;;26.70;43.40;;;;;;4974249;28;46053;-59
2022/05/25 10:25:49;;;;;;;0.45;0.25;;;26.70;43.60;;;;;;4975539;28;45532;-57
2022/05/25 10:28:32;;;;;;;0.73;0.40;;;26.70;43.60;;;;;;4974472;28;44852;-60
2022/05/25 10:36:47;;;;;;;0.77;0.40;;;26.70;43.50;;;;;;4967749;28;45226;-57
2022/05/25 10:39:37;;;;;;;0.50;0.40;;;26.70;43.50;;;;;;4974250;28;45291;-57
2022/05/25 10:42:23;;;;;;;0.30;0.30;;;26.70;43.10;;;;;;4989184;28;45177;-56
2022/05/25 10:45:12;;;;;;;0.35;0.22;;;26.70;43.20;;;;;;4989564;28;46046;-58
2022/05/25 10:47:54;;;;;;;0.45;0.20;;;26.70;43.30;;;;;;4989137;28;45162;-58
2022/05/25 10:50:20;;;;;;;0.82;0.20;;;26.70;43.20;;;;;;4987290;28;45766;-60
2022/05/25 10:52:51;;;;;;;0.20;0.20;;;26.70;43.40;;;;;;4988919;28;44710;-59
2022/05/25 10:55:18;;;;;;;0.43;0.40;;;26.70;43.20;;;;;;4976057;28;46251;-59
2022/05/25 10:57:58;;;;;;;0.10;0.10;;;26.80;43.30;;;;;;4986851;28;45632;-58
2022/05/25 11:00:57;;;;;;;0.22;0.22;;;26.80;43.30;;;;;;4974447;28;45196;-59
2022/05/25 11:03:51;;;;;;;0.55;0.40;;;26.80;42.50;;;;;;4989710;28;45461;-56
2022/05/25 11:06:29;;;;;;;1.20;0.35;;;26.80;42.10;;;;;;4972925;28;46888;-56
2022/05/25 11:09:13;;;;;;;3.53;0.20;;;26.80;41.60;;;;;;4987758;28;45585;-60
2022/05/25 11:12:17;;;;;;;0.20;0.10;;;26.80;42.00;;;;;;4988250;28;46179;-56
2022/05/25 11:15:10;;;;;;;1.90;0.30;;;26.80;40.90;;;;;;4988525;28;45321;-58
2022/05/25 11:17:57;;;;;;;0.70;0.30;;;26.80;41.30;;;;;;4990663;28;46480;-57
2022/05/25 11:20:34;;;;;;;1.48;0.32;;;26.80;41.20;;;;;;4975380;28;45876;-57
2022/05/25 11:23:09;;;;;;;2.50;0.47;;;26.80;41.60;;;;;;4976501;28;45357;-59
2022/05/25 11:26:13;;;;;;;0.43;0.25;;;26.80;40.80;;;;;;4987890;28;45317;-60
2022/05/25 11:28:49;;;;;;;0.70;0.28;;;26.80;41.00;;;;;;4979540;28;46199;-61
2022/05/25 11:31:34;;;;;;;1.75;0.25;;;26.80;41.10;;;;;;4972539;28;45041;-61
2022/05/25 11:34:08;;;;;;;2.15;0.25;;;26.80;41.10;;;;;;4987411;28;46289;-59
2022/05/25 11:36:55;;;;;;;0.45;0.20;;;26.80;40.90;;;;;;4973119;28;45385;-60
2022/05/25 11:39:24;;;;;;;0.93;0.22;;;26.80;40.20;;;;;;4989002;28;45568;-60
2022/05/25 11:42:20;;;;;;;2.47;0.30;;;26.80;40.80;;;;;;4987878;28;46160;-59
2022/05/25 11:44:58;;;;;;;0.68;0.20;;;26.80;39.70;;;;;;4990236;28;45683;-58
2022/05/25 11:47:43;;;;;;;1.30;0.30;;;26.80;40.40;;;;;;4969710;28;46060;-58
2022/05/25 11:50:42;;;;;;;1.58;0.38;;;26.80;40.20;;;;;;4969196;28;45108;-57
2022/05/25 11:53:34;;;;;;;1.40;0.30;;;26.80;40.60;;;;;;4953259;28;45011;-58
2022/05/25 11:56:14;;;;;;;0.32;0.30;;;26.80;40.50;;;;;;4927051;28;45404;-56
2022/05/25 11:59:08;;;;;;;0.47;0.20;;;26.80;40.30;;;;;;4974105;28;45080;-56
2022/05/25 12:01:57;;;;;;;0.75;0.22;;;26.80;39.40;;;;;;4988249;28;46264;-58
2022/05/25 12:04:37;;;;;;;0.50;0.20;;;26.80;40.00;;;;;;4954994;28;45361;-58
2022/05/25 12:07:18;;;;;;;2.17;0.20;;;26.80;40.30;;;;;;4974329;28;45646;-59
2022/05/25 12:09:44;;;;;;;0.52;0.28;;;26.80;39.80;;;;;;4988277;28;45510;-57
2022/05/25 12:12:39;;;;;;;0.65;0.20;;;26.80;40.00;;;;;;4989119;28;46103;-57
2022/05/25 12:15:09;;;;;;;0.57;0.30;;;26.80;39.10;;;;;;4974427;28;45323;-59
2022/05/25 12:18:15;;;;;;;0.73;0.30;;;26.80;39.90;;;;;;4972421;28;45747;-58
2022/05/25 12:20:47;;;;;;;1.20;0.30;;;26.90;38.60;;;;;;4976181;28;45102;-59
2022/05/25 12:23:15;;;;;;;0.83;0.30;;;26.80;39.10;;;;;;4972190;28;46980;-57
2022/05/25 12:25:52;;;;;;;0.70;0.32;;;26.80;39.20;;;;;;4985480;28;45109;-56
2022/05/25 12:28:18;;;;;;;0.50;0.30;;;26.90;38.50;;;;;;4956734;28;44807;-55
2022/05/25 12:30:46;;;;;;;1.08;0.40;;;26.90;38.60;;;;;;4974079;28;45079;-58
2022/05/25 12:33:19;;;;;;;0.35;0.30;;;26.90;38.50;;;;;;4971460;28;46402;-58
2022/05/25 12:35:45;;;;;;;0.90;0.30;;;26.90;38.40;;;;;;4970314;28;45830;-58
2022/05/25 12:38:11;;;;;;;0.63;0.25;;;26.90;38.40;;;;;;4967575;28;45763;-58
2022/05/25 12:40:50;;;;;;;3.55;0.30;;;26.90;38.80;;;;;;4967490;28;45701;-58
2022/05/25 12:43:38;;;;;;;1.95;0.30;;;26.90;38.60;;;;;;4965948;28;47122;-56
2022/05/25 12:49:02;;;;;;;1.50;0.30;;;26.90;39.00;;;;;;4987162;28;45346;-61
2022/05/25 12:51:43;;;;;;;1.25;0.20;;;26.90;38.60;;;;;;4980810;28;45667;-56
2022/05/25 12:54:22;;;;;;;0.40;0.28;;;26.90;38.80;;;;;;4963973;28;47081;-60
2022/05/25 12:56:48;;;;;;;0.85;0.30;;;26.90;38.90;;;;;;4958842;28;45714;-59
2022/05/25 12:59:25;;;;;;;0.88;0.30;;;26.90;39.20;;;;;;4962101;28;45778;-60
2022/05/25 13:02:14;;;;;;;0.35;0.20;;;27.00;38.70;;;;;;4971130;28;46240;-60
2022/05/25 13:04:53;;;;;;;0.35;0.20;;;27.00;38.60;;;;;;4969629;28;46031;-57
2022/05/25 13:07:31;;;;;;;0.35;0.30;;;27.00;38.80;;;;;;4987308;28;44675;-57
2022/05/25 13:09:56;;;;;;;0.38;0.20;;;27.00;39.20;;;;;;4988106;28;44897;-57
2022/05/25 13:12:40;;;;;;;2.15;0.17;;;27.00;39.30;;;;;;4970322;28;44685;-59
2022/05/25 13:15:30;;;;;;;0.70;0.32;;;27.00;38.80;;;;;;4989287;28;46001;-59
2022/05/25 13:17:58;;;;;;;0.40;0.28;;;27.00;38.60;;;;;;4975370;28;45569;-61
2022/05/25 13:20:27;;;;;;;0.30;0.30;;;27.00;39.20;;;;;;4955215;28;45701;-59
2022/05/25 13:22:54;;;;;;;1.13;0.30;;;27.00;39.20;;;;;;4990647;28;45719;-60
2022/05/25 13:25:30;;;;;;;3.30;0.47;;;27.00;39.20;;;;;;4989524;28;45517;-58
2022/05/25 13:28:01;;;;;;;0.25;0.25;;;27.00;39.20;;;;;;4971243;28;45664;-58
2022/05/25 13:30:31;;;;;;;0.38;0.20;;;27.00;39.30;;;;;;4987358;28;45517;-58
2022/05/25 13:33:15;;;;;;;0.20;0.20;;;27.10;39.10;;;;;;4972698;28;45284;-59
2022/05/25 13:35:48;;;;;;;0.52;0.28;;;27.10;39.20;;;;;;4988502;28;45553;-59
2022/05/25 13:38:29;;;;;;;0.32;0.20;;;27.10;39.20;;;;;;4957470;28;45364;-59
2022/05/25 13:41:06;;;;;;;0.20;0.20;;;27.10;39.00;;;;;;4989032;28;44719;-59
2022/05/25 13:43:44;;;;;;;0.22;0.20;;;27.10;39.20;;;;;;4972658;28;45494;-56
2022/05/25 13:46:13;;;;;;;0.43;0.20;;;27.10;38.90;;;;;;4989359;28;46121;-59
2022/05/25 13:48:50;;;;;;;0.95;0.30;;;27.10;39.30;;;;;;4971668;28;45684;-61
2022/05/25 13:51:19;;;;;;;0.70;0.30;;;27.10;39.30;;;;;;4970167;28;44716;-58
2022/05/25 13:53:44;;;;;;;0.85;0.30;;;27.10;39.20;;;;;;4991048;28;45452;-58
2022/05/25 13:56:11;;;;;;;1.05;0.30;;;27.10;39.40;;;;;;4988608;28;47699;-57
2022/05/25 13:58:43;;;;;;;0.28;0.28;;;27.10;39.30;;;;;;4988858;28;45649;-58
2022/05/25 14:01:09;;;;;;;0.52;0.20;;;27.20;39.20;;;;;;4972897;28;45601;-63
2022/05/25 14:03:35;;;;;;;0.70;0.30;;;27.20;39.30;;;;;;4988530;28;45252;-55
2022/05/25 14:06:02;;;;;;;0.47;0.28;;;27.20;39.90;;;;;;4989693;28;46769;-59
2022/05/25 14:11:49;;;;;;;0.80;0.20;;;27.20;39.00;;;;;;4978048;28;44757;-57
2022/05/25 14:14:24;;;;;;;0.90;0.20;;;27.20;39.40;;;;;;4991177;28;45601;-58
2022/05/25 14:16:55;;;;;;;0.98;0.30;;;27.20;39.30;;;;;;4994119;28;45290;-57
2022/05/25 14:19:23;;;;;;;0.30;0.13;;;27.20;39.30;;;;;;4990728;28;45849;-57
2022/05/25 14:21:50;;;;;;;0.52;0.40;;;27.20;39.30;;;;;;4975656;28;45442;-57
2022/05/25 14:24:27;;;;;;;0.68;0.30;;;27.20;39.40;;;;;;4978791;28;45303;-58
2022/05/25 14:26:54;;;;;;;0.20;0.20;;;27.30;39.40;;;;;;4990259;28;45715;-56
2022/05/25 14:29:22;;;;;;;0.90;0.30;;;27.30;39.40;;;;;;4975843;28;45721;-58
2022/05/25 14:31:52;;;;;;;0.30;0.20;;;27.30;39.40;;;;;;4966876;28;45459;-57
2022/05/25 14:34:21;;;;;;;0.30;0.13;;;27.30;39.40;;;;;;4990373;28;45030;-61
2022/05/25 14:36:48;;;;;;;0.50;0.30;;;27.30;39.40;;;;;;4955495;28;46273;-59
2022/05/25 14:39:15;;;;;;;0.63;0.20;;;27.30;39.40;;;;;;4989655;28;45372;-57
2022/05/25 14:41:50;;;;;;;0.60;0.35;;;27.30;39.40;;;;;;4989374;28;46206;-58
2022/05/25 14:44:39;;;;;;;0.28;0.20;;;27.30;39.30;;;;;;4988520;28;45285;-59
2022/05/25 14:47:18;;;;;;;2.17;0.20;;;27.30;39.00;;;;;;4986810;28;46199;-58
2022/05/25 14:50:17;;;;;;;0.73;0.30;;;27.30;39.10;;;;;;4981460;28;45541;-62
2022/05/25 14:52:53;;;;;;;0.63;0.20;;;27.30;39.10;;;;;;4983061;28;45183;-58
2022/05/25 14:55:46;;;;;;;3.10;0.20;;;27.30;39.40;;;;;;4976274;28;45214;-58
2022/05/25 14:58:18;;;;;;;0.20;0.20;;;27.30;39.00;;;;;;4987361;28;46111;-59
2022/05/25 15:01:00;;;;;;;0.10;0.10;;;27.40;39.30;;;;;;4990453;28;45348;-58
2022/05/25 15:03:47;;;;;;;0.32;0.22;;;27.40;39.40;;;;;;4974061;28;45286;-60
2022/05/25 15:06:17;;;;;;;0.10;0.10;;;27.40;39.00;;;;;;4991373;28;45502;-59
2022/05/25 15:08:53;;;;;;;0.20;0.20;;;27.40;39.10;;;;;;4988702;28;45700;-60
2022/05/25 15:11:21;;;;;;;0.20;0.20;;;27.30;39.30;;;;;;4972074;28;45681;-59
2022/05/25 15:19:23;;;;;;;1.40;0.22;;;27.30;39.30;;;;;;4980325;28;46866;-62
2022/05/25 15:21:49;;;;;;;0.87;0.33;;;27.30;39.10;;;;;;4981908;28;45350;-60
2022/05/25 15:24:16;;;;;;;0.90;0.20;;;27.30;39.20;;;;;;4967639;28;45758;-61
2022/05/25 15:26:50;;;;;;;0.45;0.32;;;27.30;39.20;;;;;;4967442;28;45546;-62
2022/05/25 15:29:25;;;;;;;0.25;0.22;;;27.30;39.20;;;;;;4950400;28;47074;-60
2022/05/25 15:31:51;;;;;;;2.35;0.30;;;27.30;39.10;;;;;;4977863;28;46207;-61
2022/05/25 15:34:17;;;;;;;0.22;0.10;;;27.30;39.30;;;;;;4983179;28;44803;-60
2022/05/25 15:36:42;;;;;;;0.30;0.20;;;27.30;39.30;;;;;;4983712;28;45596;-59
2022/05/25 15:39:08;;;;;;;4.85;0.20;;;27.30;39.30;;;;;;4966586;28;46161;-63
2022/05/25 15:41:34;;;;;;;0.30;0.15;;;27.30;39.30;;;;;;4953187;28;45420;-61
2022/05/25 15:43:59;;;;;;;0.15;0.15;;;27.30;39.30;;;;;;4966398;28;45448;-62
2022/05/25 15:46:25;;;;;;;1.08;0.20;;;27.30;39.30;;;;;;4986250;28;45732;-62
2022/05/25 15:48:53;;;;;;;0.25;0.15;;;27.30;39.30;;;;;;4968044;28;45899;-61
2022/05/25 15:51:27;;;;;;;0.63;0.30;;;27.30;39.20;;;;;;4969957;28;45420;-61
2022/05/25 15:53:52;;;;;;;0.60;0.28;;;27.40;39.20;;;;;;4968900;28;44947;-59
2022/05/25 15:56:18;;;;;;;0.20;0.10;;;27.40;39.30;;;;;;4980798;28;45306;-61
2022/05/25 15:58:44;;;;;;;0.30;0.30;;;27.40;39.30;;;;;;4979765;28;45439;-61
2022/05/25 16:01:10;;;;;;;0.52;0.20;;;27.40;39.30;;;;;;4978644;28;44935;-61
2022/05/25 16:03:43;;;;;;;0.15;0.15;;;27.40;39.20;;;;;;4961305;28;46458;-60
2022/05/25 16:06:10;;;;;;;0.50;0.20;;;27.40;39.10;;;;;;4947226;28;45117;-61
2022/05/25 16:11:21;;;;;;;0.10;0.10;;;27.40;39.20;;;;;;4979214;28;44756;-61
2022/05/25 16:13:46;;;;;;;1.10;0.20;;;27.40;39.20;;;;;;4981313;28;45445;-60
2022/05/25 16:16:12;;;;;;;1.15;0.20;;;27.40;39.10;;;;;;4981302;28;45756;-60
2022/05/25 16:18:41;;;;;;;0.10;0.10;;;27.40;39.10;;;;;;4981621;28;46076;-60
2022/05/25 16:21:10;;;;;;;0.40;0.20;;;27.40;39.10;;;;;;4962781;28;45464;-59
2022/05/25 16:23:36;;;;;;;0.30;0.25;;;27.40;39.10;;;;;;4980526;28;45728;-59
2022/05/25 16:26:01;;;;;;;0.45;0.20;;;27.40;39.10;;;;;;4978643;28;45644;-61
2022/05/25 16:28:27;;;;;;;0.20;0.20;;;27.40;39.10;;;;;;4979531;28;46195;-61
2022/05/25 16:30:53;;;;;;;0.40;0.20;;;27.40;39.10;;;;;;4979614;28;45406;-60
2022/05/25 16:33:18;;;;;;;0.20;0.20;;;27.40;39.10;;;;;;4979009;28;45535;-60
2022/05/25 16:35:44;;;;;;;0.55;0.30;;;27.40;39.10;;;;;;4979887;28;46425;-61
2022/05/25 16:38:10;;;;;;;0.40;0.10;;;27.40;39.00;;;;;;4979527;28;46255;-61
2022/05/25 16:40:36;;;;;;;0.50;0.20;;;27.40;39.10;;;;;;4981328;28;45736;-58
2022/05/25 16:43:01;;;;;;;0.30;0.28;;;27.40;39.10;;;;;;4984454;28;45573;-59
2022/05/25 16:45:27;;;;;;;0.30;0.20;;;27.40;39.10;;;;;;4978506;28;45752;-60